Time;durP1;ratioP1;P1;durP2;ratioP2;P2;SDS_P1;SDS_P2;PMS_P1;PMS_P2;Temp;Humidity;BMP_temperature;BMP_pressure;BME280_temperature;BME280_humidity;BME280_pressure;Samples;Min_cycle;Max_cycle;Signal;HPM_P1;HPM_P2
2021/12/05 00:22:41;;;;;;;1.27;1.17;;;;;;;2.82;100.00;98750.28;5072387;28;20255;-73
2021/12/05 00:25:12;;;;;;;3.43;3.17;;;;;;;2.86;100.00;98756.66;5070603;28;20593;-74
2021/12/05 00:27:46;;;;;;;2.47;2.37;;;;;;;2.91;100.00;98767.38;5072051;28;20257;-73
2021/12/05 00:46:27;;;;;;;1.17;1.10;;;;;;;3.26;100.00;98793.56;5071722;28;20270;-73
2021/12/05 00:55:18;;;;;;;2.50;2.30;;;;;;;3.37;100.00;98809.53;5028712;28;20200;-74
2021/12/05 01:00:55;;;;;;;1.83;1.73;;;;;;;3.43;100.00;98798.31;5059057;28;20297;-74
2021/12/05 01:08:46;;;;;;;5.83;5.33;;;;;;;3.49;100.00;98809.81;5071593;28;20665;-75
2021/12/05 01:16:26;;;;;;;6.03;3.70;;;;;;;3.56;100.00;98823.66;5070993;28;20634;-73
2021/12/05 01:18:52;;;;;;;3.50;3.23;;;;;;;3.57;100.00;98826.06;5071125;28;20202;-75
2021/12/05 01:21:21;;;;;;;3.50;3.20;;;;;;;3.61;100.00;98820.03;5070983;28;20202;-73
2021/12/05 01:26:47;;;;;;;1.30;1.20;;;;;;;3.64;100.00;98841.06;5071192;28;20162;-73
2021/12/05 01:29:30;;;;;;;11.50;2.23;;;;;;;3.67;100.00;98843.94;5070897;28;20658;-76
2021/12/05 01:32:13;;;;;;;1.30;1.20;;;;;;;3.73;100.00;98845.41;5071023;28;20181;-73
2021/12/05 01:35:39;;;;;;;2.33;1.40;;;;;;;3.78;100.00;98848.00;5070869;28;20263;-74
2021/12/05 01:37:37;;;;;;;1.87;1.70;;;;;;;3.82;100.00;98840.88;5063372;28;20716;-73
2021/12/05 01:40:42;;;;;;;3.63;3.33;;;;;;;3.82;100.00;98842.78;5070886;28;20194;-75
2021/12/05 01:53:16;;;;;;;2.43;2.20;;;;;;;3.79;100.00;98827.19;5070854;28;20186;-73
2021/12/05 02:12:32;;;;;;;2.30;2.20;;;;;;;3.94;100.00;98844.94;5070419;28;20190;-73
2021/12/05 02:42:30;;;;;;;2.63;2.43;;;;;;;4.04;100.00;98869.00;5070160;28;20178;-74
2021/12/05 02:44:56;;;;;;;5.33;4.93;;;;;;;4.05;100.00;98862.50;5069719;28;20198;-74
2021/12/05 02:47:25;;;;;;;7.20;6.43;;;;;;;4.02;100.00;98861.22;5069890;28;20709;-74
2021/12/05 02:49:54;;;;;;;6.97;5.07;;;;;;;4.02;100.00;98868.50;5069797;28;20202;-74
2021/12/05 02:52:26;;;;;;;10.13;9.13;;;;;;;4.02;100.00;98866.63;5069851;28;20182;-75
2021/12/05 02:54:57;;;;;;;9.53;5.27;;;;;;;4.02;100.00;98865.81;5069578;28;20185;-74
2021/12/05 02:58:15;;;;;;;2.40;2.30;;;;;;;4.00;100.00;98860.72;5069784;28;20244;-74
2021/12/05 03:00:16;;;;;;;2.40;1.77;;;;;;;3.99;100.00;98869.13;5062077;28;20628;-73
2021/12/05 03:02:45;;;;;;;5.80;3.60;;;;;;;3.99;100.00;98875.34;5071432;28;20570;-73
2021/12/05 03:05:14;;;;;;;3.07;2.77;;;;;;;3.98;100.00;98879.16;5073197;28;20172;-73
2021/12/05 03:07:42;;;;;;;2.40;2.20;;;;;;;4.00;100.00;98882.34;5073430;28;20235;-74
2021/12/05 03:10:11;;;;;;;4.37;3.27;;;;;;;4.03;100.00;98879.00;5072621;28;20573;-74
2021/12/05 03:12:38;;;;;;;1.40;1.40;;;;;;;4.08;100.00;98895.13;5072743;28;20197;-74
2021/12/05 03:15:08;;;;;;;1.73;1.63;;;;;;;4.11;100.00;98899.91;5072950;28;20175;-74
2021/12/05 03:17:34;;;;;;;2.80;2.60;;;;;;;4.12;100.00;98911.53;5073053;28;20179;-74
2021/12/05 03:19:59;;;;;;;5.33;4.93;;;;;;;4.13;100.00;98915.81;5073138;28;20213;-73
2021/12/05 03:22:25;;;;;;;8.57;6.43;;;;;;;4.14;100.00;98931.72;5073112;28;20171;-73
2021/12/05 03:24:51;;;;;;;3.60;3.33;;;;;;;4.15;100.00;98921.72;5071495;28;20174;-74
2021/12/05 03:27:16;;;;;;;6.03;4.77;;;;;;;4.17;100.00;98936.50;5073168;28;20221;-74
2021/12/05 03:29:42;;;;;;;5.87;5.37;;;;;;;4.16;100.00;98928.72;5073460;28;20461;-74
2021/12/05 03:32:07;;;;;;;5.93;5.43;;;;;;;4.17;100.00;98943.81;5073074;28;20275;-75
2021/12/05 03:34:33;;;;;;;12.77;4.47;;;;;;;4.15;100.00;98944.13;5072887;28;20700;-74
2021/12/05 03:37:00;;;;;;;3.33;3.03;;;;;;;4.15;100.00;98954.13;5072563;28;20171;-74
2021/12/05 03:39:27;;;;;;;8.00;4.67;;;;;;;4.13;100.00;98946.34;5072670;28;20279;-75
2021/12/05 03:41:53;;;;;;;3.73;2.00;;;;;;;4.11;100.00;98951.25;5071381;28;20520;-73
2021/12/05 03:44:20;;;;;;;4.57;4.17;;;;;;;4.11;100.00;98961.28;5072604;28;20610;-74
2021/12/05 03:46:47;;;;;;;5.60;1.23;;;;;;;4.10;100.00;98955.06;5072388;28;20622;-75
2021/12/05 03:49:13;;;;;;;2.17;2.07;;;;;;;4.08;100.00;98965.38;5072751;28;20183;-73
2021/12/05 03:51:43;;;;;;;5.40;2.83;;;;;;;4.08;100.00;98970.78;5073136;28;20200;-73
2021/12/05 03:54:09;;;;;;;3.73;3.43;;;;;;;4.06;100.00;98967.59;5072019;28;20232;-74
2021/12/05 03:56:37;;;;;;;5.27;3.03;;;;;;;4.07;100.00;98971.91;5072254;28;20183;-74
2021/12/05 03:59:06;;;;;;;7.77;3.53;;;;;;;4.07;100.00;98980.00;5072446;28;20267;-76
2021/12/05 04:01:31;;;;;;;6.73;3.90;;;;;;;4.06;100.00;98983.00;5072473;28;20170;-74
2021/12/05 04:03:57;;;;;;;1.90;1.57;;;;;;;4.03;100.00;98987.09;5072330;28;20175;-74
2021/12/05 04:06:26;;;;;;;12.70;1.83;;;;;;;3.99;100.00;98988.81;5071931;28;20214;-75
2021/12/05 04:08:52;;;;;;;1.53;1.43;;;;;;;3.96;100.00;98984.03;5072131;28;20189;-73
2021/12/05 04:11:24;;;;;;;2.37;2.27;;;;;;;3.93;100.00;98987.34;5072206;28;20185;-73
2021/12/05 04:13:51;;;;;;;0.57;0.57;;;;;;;3.92;100.00;98990.34;5071030;28;20604;-74
2021/12/05 04:16:17;;;;;;;0.80;0.80;;;;;;;3.90;100.00;98990.63;5071960;28;20174;-73
2021/12/05 04:18:45;;;;;;;6.43;1.47;;;;;;;3.89;100.00;98995.22;5072068;28;20336;-73
2021/12/05 04:21:11;;;;;;;0.70;0.70;;;;;;;3.88;100.00;98996.34;5072029;28;20530;-75
2021/12/05 04:23:36;;;;;;;5.77;3.10;;;;;;;3.89;100.00;98994.44;5072070;28;20178;-74
2021/12/05 04:26:03;;;;;;;3.07;2.77;;;;;;;3.88;100.00;99001.75;5071765;28;20222;-74
2021/12/05 04:28:28;;;;;;;3.33;2.93;;;;;;;3.87;100.00;98993.94;5072203;28;20174;-74
2021/12/05 04:30:54;;;;;;;2.80;1.87;;;;;;;3.88;100.00;98996.34;5071956;28;20664;-74
2021/12/05 04:33:19;;;;;;;2.00;1.90;;;;;;;3.89;100.00;99005.25;5071755;28;20179;-74
2021/12/05 04:35:45;;;;;;;3.83;1.83;;;;;;;3.89;100.00;99005.25;5071453;28;20288;-74
2021/12/05 04:38:10;;;;;;;2.90;2.67;;;;;;;3.88;100.00;99014.44;5071172;28;20217;-76
2021/12/05 04:40:36;;;;;;;5.60;2.93;;;;;;;3.89;100.00;99013.34;5069983;28;20205;-74
2021/12/05 04:43:03;;;;;;;2.63;2.43;;;;;;;3.89;100.00;99021.44;5071936;28;20665;-76
2021/12/05 04:45:32;;;;;;;5.27;3.07;;;;;;;3.89;100.00;99010.63;5071327;28;20169;-75
2021/12/05 04:47:58;;;;;;;3.13;2.50;;;;;;;3.89;100.00;99010.63;5071379;28;20251;-75
2021/12/05 04:50:24;;;;;;;5.07;2.77;;;;;;;3.93;100.00;99022.47;5071739;28;20311;-74
2021/12/05 04:52:51;;;;;;;5.17;1.50;;;;;;;3.93;100.00;99018.97;5071608;28;20175;-73
2021/12/05 04:55:17;;;;;;;1.33;1.23;;;;;;;3.94;100.00;99018.66;5071203;28;20178;-74
2021/12/05 04:57:44;;;;;;;2.63;2.43;;;;;;;3.96;100.00;99021.84;5071483;28;20646;-75
2021/12/05 05:00:16;;;;;;;4.30;2.37;;;;;;;3.97;100.00;99018.03;5071361;28;20230;-75
2021/12/05 05:02:42;;;;;;;4.20;2.40;;;;;;;4.01;100.00;99029.84;5071405;28;20167;-74
2021/12/05 05:05:10;;;;;;;4.17;2.47;;;;;;;3.93;100.00;99024.38;5070970;28;20636;-74
2021/12/05 05:07:37;;;;;;;3.33;2.47;;;;;;;3.95;100.00;99028.38;5071224;28;20179;-74
2021/12/05 05:10:11;;;;;;;7.95;4.45;;;;;;;4.05;100.00;99022.75;5070051;28;20454;-74
2021/12/05 05:12:37;;;;;;;5.73;2.87;;;;;;;4.06;100.00;99026.25;5071212;28;20505;-75
2021/12/05 05:15:03;;;;;;;4.37;3.23;;;;;;;4.04;100.00;99017.63;5070829;28;20228;-76
2021/12/05 05:17:29;;;;;;;2.00;1.90;;;;;;;4.12;100.00;99033.94;5071154;28;20224;-75
2021/12/05 05:20:02;;;;;;;7.60;1.93;;;;;;;4.08;100.00;99030.25;5070960;28;20202;-76
2021/12/05 05:50:38;;;;;;;2.63;1.67;;;;;;;4.05;100.00;99047.06;5070995;28;20648;-74
2021/12/05 05:53:04;;;;;;;2.27;1.77;;;;;;;3.95;100.00;99032.97;5070543;28;20540;-76
2021/12/05 05:55:30;;;;;;;2.37;2.03;;;;;;;3.94;100.00;99051.09;5070124;28;20192;-76
2021/12/05 05:58:12;;;;;;;3.20;1.47;;;;;;;3.86;100.00;99035.56;5070581;28;20626;-74
2021/12/05 06:00:50;;;;;;;3.03;2.83;;;;;;;3.77;100.00;99040.09;5070459;28;20308;-74
2021/12/05 06:03:22;;;;;;;2.80;1.70;;;;;;;3.56;100.00;99045.06;5070809;28;20155;-74
2021/12/05 06:05:57;;;;;;;3.60;1.70;;;;;;;3.52;100.00;99036.78;5070312;28;20163;-74
2021/12/05 06:08:25;;;;;;;1.67;1.50;;;;;;;3.52;100.00;99036.78;5070125;28;20174;-76
2021/12/05 06:10:55;;;;;;;3.23;2.37;;;;;;;3.51;100.00;99037.88;5070469;28;20170;-74
2021/12/05 06:13:21;;;;;;;2.93;2.13;;;;;;;3.47;100.00;99036.06;5070476;28;20165;-74
2021/12/05 06:15:47;;;;;;;1.93;1.50;;;;;;;3.42;100.00;99036.97;5070292;28;20257;-74
2021/12/05 06:18:13;;;;;;;3.93;2.33;;;;;;;3.45;100.00;99039.06;5070312;28;20182;-74
2021/12/05 06:20:40;;;;;;;2.87;2.23;;;;;;;3.43;100.00;99046.66;5070255;28;20202;-73
2021/12/05 06:23:06;;;;;;;2.33;2.03;;;;;;;3.33;100.00;99032.53;5070357;28;20222;-76
2021/12/05 06:25:35;;;;;;;1.77;1.10;;;;;;;3.24;100.00;99037.84;5070106;28;20202;-75
2021/12/05 06:28:05;;;;;;;1.67;1.07;;;;;;;3.13;100.00;99034.53;5069075;28;20529;-74
2021/12/05 06:30:53;;;;;;;3.27;2.23;;;;;;;3.11;100.00;99038.63;5070327;28;20177;-75
2021/12/05 06:46:38;;;;;;;2.73;2.03;;;;;;;2.89;100.00;99058.97;5074148;28;20174;-73
2021/12/05 06:49:04;;;;;;;1.50;1.40;;;;;;;2.83;100.00;99062.81;5074228;28;20551;-74
2021/12/05 06:51:30;;;;;;;1.07;0.87;;;;;;;2.71;100.00;99064.34;5074118;28;20194;-76
2021/12/05 06:53:57;;;;;;;2.33;1.57;;;;;;;2.52;100.00;99064.38;5073807;28;20212;-75
2021/12/05 06:56:24;;;;;;;4.50;3.40;;;;;;;2.32;100.00;99068.19;5073804;28;20262;-73
2021/12/05 06:58:50;;;;;;;2.80;1.90;;;;;;;2.19;100.00;99068.91;5073587;28;20190;-73
2021/12/05 07:01:16;;;;;;;2.30;2.10;;;;;;;2.12;100.00;99077.31;5073879;28;20202;-77
2021/12/05 07:03:45;;;;;;;2.87;1.33;;;;;;;2.11;100.00;99081.09;5073766;28;20181;-75
2021/12/05 07:06:18;;;;;;;5.73;1.97;;;;;;;2.08;100.00;99089.78;5073414;28;20177;-74
2021/12/05 07:08:44;;;;;;;1.57;1.30;;;;;;;2.16;100.00;99099.88;5073012;28;20638;-74
2021/12/05 07:11:26;;;;;;;2.30;1.50;;;;;;;2.14;100.00;99093.19;5073719;28;20198;-75
2021/12/05 07:16:41;;;;;;;4.27;1.83;;;;;;;2.23;100.00;99103.03;5073403;28;20186;-75
2021/12/05 07:21:57;;;;;;;3.93;2.03;;;;;;;2.08;100.00;99111.31;5073523;28;20235;-77
2021/12/05 07:40:18;;;;;;;1.93;1.30;;;;;;;2.28;100.00;99135.31;5073645;28;20163;-74
2021/12/05 07:40:44;;;;;;;1.60;1.40;;;;;;;2.62;100.00;99156.72;5073068;28;20186;-78
2021/12/05 07:43:11;;;;;;;6.23;2.00;;;;;;;2.56;100.00;99159.75;5073123;28;20618;-73
2021/12/05 07:45:48;;;;;;;2.57;1.47;;;;;;;2.36;100.00;99166.22;5072897;28;20564;-75
2021/12/05 07:48:19;;;;;;;3.80;2.00;;;;;;;2.39;100.00;99171.81;5072811;28;20243;-75
2021/12/05 07:53:21;;;;;;;3.20;2.27;;;;;;;2.25;100.00;99176.31;5072886;28;20240;-77
2021/12/05 07:55:49;;;;;;;3.57;1.40;;;;;;;2.30;100.00;99176.22;5072054;28;20381;-76
2021/12/05 08:01:21;;;;;;;4.37;2.63;;;;;;;2.77;100.00;99201.53;5072672;28;20244;-75
2021/12/05 08:14:48;;;;;;;3.37;1.87;;;;;;;3.29;100.00;99226.69;5072474;28;20232;-77
2021/12/05 08:17:18;;;;;;;2.00;1.30;;;;;;;3.37;100.00;99225.22;5072366;28;20174;-77
2021/12/05 08:19:44;;;;;;;1.63;1.13;;;;;;;3.39;100.00;99229.22;5072136;28;20666;-76
2021/12/05 08:22:10;;;;;;;2.83;1.67;;;;;;;3.37;100.00;99234.13;5072140;28;20676;-78
2021/12/05 08:24:39;;;;;;;4.00;1.10;;;;;;;3.34;100.00;99234.72;5072159;28;20178;-78
2021/12/05 08:27:06;;;;;;;1.83;1.30;;;;;;;3.26;100.00;99240.75;5072054;28;20270;-78
2021/12/05 08:29:44;;;;;;;1.03;1.03;;;;;;;3.23;100.00;99236.75;5072126;28;20258;-77
2021/12/05 08:35:04;;;;;;;3.57;3.03;;;;;;;3.39;100.00;99252.72;5072056;28;20206;-77
2021/12/05 08:45:54;;;;;;;3.20;1.87;;;;;;;3.67;100.00;99284.16;5071639;28;20212;-78
2021/12/05 10:15:12;;;;;;;1.43;0.87;;;;;;;4.74;97.65;99401.28;5054693;28;20206;-76
2021/12/05 10:27:07;;;;;;;0.63;0.63;;;;;;;4.82;97.87;99402.50;5054195;28;20202;-74
2021/12/05 10:36:38;;;;;;;0.60;0.47;;;;;;;4.68;96.97;99386.25;5054409;28;20189;-76
2021/12/05 10:38:31;;;;;;;1.30;1.20;;;;;;;4.66;96.92;99389.25;5040696;28;20229;-76
2021/12/05 10:41:58;;;;;;;2.20;0.73;;;;;;;4.64;97.67;99396.06;5054143;28;20214;-75
2021/12/05 10:43:55;;;;;;;4.43;0.27;;;;;;;4.56;97.51;99389.41;5050828;28;20183;-75
2021/12/05 10:46:23;;;;;;;1.60;0.97;;;;;;;4.55;98.53;99385.09;5052589;28;20175;-76
2021/12/05 10:49:03;;;;;;;0.20;0.20;;;;;;;4.51;98.99;99388.72;5054070;28;20182;-75
2021/12/05 10:51:37;;;;;;;1.13;0.57;;;;;;;4.45;99.28;99396.91;5053816;28;20177;-76
2021/12/05 10:54:12;;;;;;;2.60;0.50;;;;;;;4.44;98.57;99394.50;5053858;28;20163;-80
2021/12/05 10:56:49;;;;;;;1.47;0.77;;;;;;;4.44;98.31;99399.91;5072134;28;20665;-79
2021/12/05 10:59:20;;;;;;;0.00;0.00;;;;;;;4.41;98.39;99397.78;5072119;28;20205;-79
2021/12/05 11:01:47;;;;;;;2.10;0.93;;;;;;;4.40;98.19;99402.41;5073520;28;20170;-78
2021/12/05 11:04:28;;;;;;;0.67;0.40;;;;;;;4.38;97.97;99395.69;5073729;28;20174;-81
2021/12/05 11:07:07;;;;;;;0.20;0.20;;;;;;;4.34;98.09;99391.94;5072329;28;20692;-75
2021/12/05 11:09:32;;;;;;;0.20;0.10;;;;;;;4.33;98.05;99395.75;5073712;28;20272;-76
2021/12/05 11:12:02;;;;;;;0.20;0.20;;;;;;;4.35;99.32;99397.09;5073528;28;20836;-75
2021/12/05 11:14:37;;;;;;;1.07;0.80;;;;;;;4.37;98.06;99411.13;5073301;28;20216;-75
2021/12/05 11:17:03;;;;;;;6.33;1.40;;;;;;;4.41;97.86;99411.31;5073905;28;20162;-75
2021/12/05 11:19:33;;;;;;;0.80;0.80;;;;;;;4.48;98.36;99415.25;5073762;28;20198;-76
2021/12/05 11:22:07;;;;;;;2.23;1.03;;;;;;;4.53;98.47;99418.97;5073570;28;20638;-76
2021/12/05 11:24:36;;;;;;;1.83;1.23;;;;;;;4.55;98.22;99416.75;5072701;28;20167;-74
2021/12/05 11:27:07;;;;;;;11.33;0.93;;;;;;;4.55;96.99;99419.47;5072667;28;20171;-74
2021/12/05 11:29:59;;;;;;;0.77;0.63;;;;;;;4.60;97.33;99414.75;5073429;28;20167;-74
2021/12/05 11:32:35;;;;;;;1.17;0.80;;;;;;;4.65;96.78;99433.63;5073450;28;20509;-74
2021/12/05 11:35:12;;;;;;;1.97;0.90;;;;;;;4.74;96.91;99414.78;5072990;28;20173;-74
2021/12/05 11:38:11;;;;;;;1.50;0.87;;;;;;;4.81;97.02;99420.63;5073042;28;20261;-74
2021/12/05 11:40:45;;;;;;;0.10;0.10;;;;;;;4.78;94.04;99416.63;5072967;28;20202;-76
2021/12/05 11:43:15;;;;;;;3.47;1.43;;;;;;;4.80;95.20;99413.63;5073090;28;20171;-74
2021/12/05 11:45:58;;;;;;;1.70;0.77;;;;;;;4.80;94.07;99412.81;5072880;28;20293;-75
2021/12/05 11:48:28;;;;;;;0.10;0.10;;;;;;;4.80;92.88;99418.22;5073027;28;20166;-75
2021/12/05 11:50:55;;;;;;;0.23;0.23;;;;;;;4.75;91.66;99419.91;5073026;28;20174;-74
2021/12/05 11:53:39;;;;;;;1.30;0.67;;;;;;;4.81;94.02;99417.13;5072798;28;20166;-76
2021/12/05 11:56:04;;;;;;;1.63;0.70;;;;;;;4.84;93.76;99421.94;5072402;28;20224;-75
2021/12/05 11:58:30;;;;;;;1.70;0.70;;;;;;;4.89;93.47;99419.13;5072860;28;20171;-75
2021/12/05 12:01:03;;;;;;;1.03;0.93;;;;;;;4.93;93.86;99423.66;5072774;28;20267;-77
2021/12/05 12:03:34;;;;;;;3.03;0.70;;;;;;;5.02;94.74;99427.25;5072729;28;20186;-75
2021/12/05 12:06:00;;;;;;;1.70;0.63;;;;;;;5.08;94.72;99433.41;5072635;28;20690;-76
2021/12/05 12:08:25;;;;;;;1.00;0.60;;;;;;;5.12;93.70;99426.28;5072277;28;20174;-76
2021/12/05 12:10:57;;;;;;;1.60;0.37;;;;;;;5.14;91.50;99437.59;5072778;28;20170;-76
2021/12/05 12:13:29;;;;;;;0.60;0.60;;;;;;;5.17;90.93;99430.78;5072512;28;20367;-76
2021/12/05 12:16:00;;;;;;;0.77;0.37;;;;;;;5.18;91.16;99430.47;5072259;28;20171;-76
2021/12/05 12:18:31;;;;;;;1.07;0.60;;;;;;;5.17;91.17;99437.00;5071255;28;20163;-76
2021/12/05 12:21:04;;;;;;;0.80;0.40;;;;;;;5.21;91.25;99440.72;5070501;28;20206;-74
2021/12/05 12:23:30;;;;;;;4.10;0.80;;;;;;;5.22;90.80;99433.41;5071542;28;20186;-76
2021/12/05 12:25:59;;;;;;;0.90;0.47;;;;;;;5.22;88.26;99439.63;5071745;28;20179;-76
2021/12/05 12:28:26;;;;;;;0.50;0.50;;;;;;;5.30;89.33;99441.63;5070335;28;20185;-76
2021/12/05 12:30:58;;;;;;;5.30;0.93;;;;;;;5.40;89.04;99440.63;5071841;28;20178;-74
2021/12/05 12:33:30;;;;;;;0.60;0.20;;;;;;;5.42;88.27;99437.59;5071696;28;20687;-75
2021/12/05 12:35:57;;;;;;;3.97;0.90;;;;;;;5.41;88.44;99444.13;5070633;28;20280;-76
2021/12/05 12:38:44;;;;;;;2.60;0.80;;;;;;;5.47;88.61;99451.03;5071787;28;20262;-76
2021/12/05 12:41:23;;;;;;;1.63;0.80;;;;;;;5.46;87.44;99447.53;5071938;28;20306;-76
2021/12/05 12:43:52;;;;;;;0.83;0.60;;;;;;;5.42;87.97;99451.94;5071639;28;20174;-77
2021/12/05 12:46:17;;;;;;;1.07;0.60;;;;;;;5.43;88.09;99453.56;5071602;28;20171;-75
2021/12/05 12:48:43;;;;;;;2.10;1.40;;;;;;;5.37;87.01;99460.19;5070685;28;20542;-73
2021/12/05 12:51:23;;;;;;;2.60;0.60;;;;;;;5.44;87.70;99457.06;5071561;28;20179;-77
2021/12/05 12:53:54;;;;;;;1.77;0.93;;;;;;;5.37;86.40;99457.47;5071320;28;20177;-76
2021/12/05 12:56:22;;;;;;;4.47;1.70;;;;;;;5.36;87.04;99462.09;5070899;28;20183;-76
2021/12/05 12:58:51;;;;;;;5.40;1.00;;;;;;;5.35;86.99;99455.06;5070978;28;20190;-78
2021/12/05 13:02:04;;;;;;;2.87;1.77;;;;;;;5.43;88.26;99463.59;5071563;28;20646;-77
2021/12/05 13:05:01;;;;;;;0.67;0.60;;;;;;;5.35;88.23;99459.66;5050735;28;20219;-74
2021/12/05 13:10:42;;;;;;;0.83;0.70;;;;;;;5.25;87.59;99462.59;5070025;28;20193;-76
2021/12/05 13:13:20;;;;;;;0.87;0.37;;;;;;;5.20;88.28;99452.63;5069899;28;20810;-77
2021/12/05 13:15:53;;;;;;;0.70;0.57;;;;;;;5.13;89.82;99444.13;5071186;28;20270;-84
2021/12/05 13:18:25;;;;;;;0.80;0.80;;;;;;;5.07;90.21;99451.56;5076429;28;20166;-76
2021/12/05 13:20:58;;;;;;;2.20;2.00;;;;;;;5.01;90.17;99447.31;5080472;28;20191;-77
2021/12/05 13:23:42;;;;;;;2.10;1.87;;;;;;;5.03;91.12;99455.94;5072488;28;20174;-76
2021/12/05 13:26:25;;;;;;;1.67;1.30;;;;;;;5.02;92.15;99467.88;5071474;28;20525;-76
2021/12/05 13:29:14;;;;;;;1.70;1.60;;;;;;;5.10;92.74;99465.59;5069743;28;20202;-75
2021/12/05 13:31:42;;;;;;;2.73;1.33;;;;;;;5.11;93.25;99467.19;5071038;28;20204;-76
2021/12/05 13:34:33;;;;;;;0.87;0.70;;;;;;;5.08;93.04;99469.41;5070943;28;20170;-76
2021/12/05 13:37:04;;;;;;;3.03;0.63;;;;;;;5.25;93.66;99485.06;5070843;28;20194;-77
2021/12/05 13:39:35;;;;;;;2.50;0.80;;;;;;;5.36;94.25;99486.47;5070532;28;20272;-76
2021/12/05 13:42:07;;;;;;;0.57;0.57;;;;;;;5.41;93.35;99490.19;5070004;28;20201;-77
2021/12/05 13:45:06;;;;;;;1.30;1.20;;;;;;;5.44;89.22;99498.50;5070683;28;20171;-77
2021/12/05 13:47:39;;;;;;;5.20;1.17;;;;;;;5.62;88.79;99504.91;5070453;28;20174;-77
2021/12/05 13:52:52;;;;;;;1.17;0.70;;;;;;;5.93;90.43;99508.66;5070737;28;20178;-76
2021/12/05 13:55:31;;;;;;;1.33;0.90;;;;;;;5.82;89.72;99519.97;5070278;28;20171;-76
2021/12/05 13:58:28;;;;;;;0.40;0.40;;;;;;;5.61;90.93;99509.53;5070467;28;20169;-76
2021/12/05 14:00:59;;;;;;;0.93;0.60;;;;;;;5.25;93.69;99490.47;5070845;28;20261;-76
2021/12/05 14:03:49;;;;;;;1.73;0.60;;;;;;;4.93;96.94;99501.34;5068982;28;20176;-76
2021/12/05 14:06:25;;;;;;;1.93;0.53;;;;;;;4.68;99.43;99489.03;5069590;28;20185;-76
2021/12/05 14:08:52;;;;;;;4.33;0.97;;;;;;;4.62;100.00;99493.72;5067494;28;20194;-73
2021/12/05 14:11:18;;;;;;;1.63;1.50;;;;;;;5.02;100.00;99513.88;5068469;28;20227;-69
2021/12/05 14:13:44;;;;;;;1.57;0.67;;;;;;;5.53;100.00;99521.09;5069480;28;20182;-77
2021/12/05 14:16:10;;;;;;;2.37;0.80;;;;;;;5.38;100.00;99529.50;5068051;28;20175;-77
2021/12/05 14:18:35;;;;;;;1.67;0.63;;;;;;;5.07;100.00;99529.25;5067261;28;20194;-77
2021/12/05 14:21:30;;;;;;;1.10;0.70;;;;;;;4.77;99.86;99517.84;5069894;28;20290;-77
2021/12/05 14:23:59;;;;;;;0.73;0.70;;;;;;;4.62;100.00;99526.19;5049833;28;20247;-78
2021/12/05 14:26:27;;;;;;;0.97;0.87;;;;;;;4.51;100.00;99518.53;5067817;28;20178;-77
2021/12/05 14:29:02;;;;;;;1.73;0.93;;;;;;;4.25;100.00;99515.41;5068279;28;20277;-77
2021/12/05 14:31:31;;;;;;;1.03;0.80;;;;;;;4.07;100.00;99519.69;5068859;28;20197;-78
2021/12/05 14:33:57;;;;;;;0.90;0.50;;;;;;;3.81;100.00;99528.13;5070035;28;20171;-78
2021/12/05 14:36:28;;;;;;;1.50;0.80;;;;;;;3.54;100.00;99520.63;5069998;28;20197;-78
2021/12/05 14:39:08;;;;;;;1.10;1.00;;;;;;;3.31;100.00;99517.91;5070161;28;20175;-77
2021/12/05 14:41:35;;;;;;;3.13;1.20;;;;;;;3.20;100.00;99533.41;5070019;28;20182;-79
2021/12/05 14:44:01;;;;;;;1.60;1.30;;;;;;;3.14;100.00;99538.03;5069400;28;20332;-78
2021/12/05 14:46:26;;;;;;;1.33;0.80;;;;;;;3.02;100.00;99545.69;5069953;28;20175;-78
2021/12/05 14:48:57;;;;;;;0.90;0.60;;;;;;;2.86;100.00;99545.03;5070122;28;20185;-76
2021/12/05 14:51:35;;;;;;;0.80;0.60;;;;;;;2.65;100.00;99535.50;5070102;28;20194;-76
2021/12/05 14:54:01;;;;;;;4.97;0.50;;;;;;;2.50;100.00;99539.13;5070134;28;20661;-75
2021/12/05 14:56:31;;;;;;;1.57;0.70;;;;;;;2.37;100.00;99545.94;5069799;28;20215;-74
2021/12/05 14:59:13;;;;;;;0.87;0.30;;;;;;;2.39;100.00;99557.25;5071785;28;20687;-75
2021/12/05 15:01:43;;;;;;;1.50;0.40;;;;;;;2.38;100.00;99555.63;5073841;28;20633;-75
2021/12/05 15:04:10;;;;;;;4.93;0.50;;;;;;;2.37;100.00;99559.41;5073784;28;20174;-75
2021/12/05 15:06:41;;;;;;;2.50;1.00;;;;;;;2.29;100.00;99562.69;5073520;28;20637;-74
2021/12/05 15:09:20;;;;;;;1.00;0.63;;;;;;;2.21;100.00;99565.97;5073524;28;20283;-75
2021/12/05 15:11:55;;;;;;;1.80;1.53;;;;;;;2.15;100.00;99583.22;5073692;28;20159;-75
2021/12/05 15:14:20;;;;;;;0.67;0.67;;;;;;;2.00;100.00;99580.59;5073618;28;20176;-75
2021/12/05 15:17:04;;;;;;;0.77;0.60;;;;;;;1.89;100.00;99579.06;5073414;28;20255;-75
2021/12/05 15:19:29;;;;;;;3.17;0.83;;;;;;;1.88;100.00;99597.09;5073362;28;20674;-75
2021/12/05 15:21:55;;;;;;;1.50;0.80;;;;;;;1.83;100.00;99597.09;5073295;28;20583;-75
2021/12/05 15:24:23;;;;;;;1.90;0.73;;;;;;;1.76;100.00;99596.59;5073425;28;20209;-75
2021/12/05 15:26:49;;;;;;;1.63;0.80;;;;;;;1.81;100.00;99598.47;5073141;28;20236;-75
2021/12/05 15:29:14;;;;;;;1.53;1.00;;;;;;;1.75;100.00;99609.25;5073293;28;20178;-75
2021/12/05 15:31:42;;;;;;;1.37;1.20;;;;;;;1.65;100.00;99605.78;5073286;28;20658;-75
2021/12/05 15:34:29;;;;;;;2.47;0.83;;;;;;;1.51;100.00;99610.94;5073104;28;20171;-75
2021/12/05 15:36:56;;;;;;;0.70;0.70;;;;;;;1.47;100.00;99616.06;5073312;28;20224;-75
2021/12/05 15:39:25;;;;;;;2.80;0.60;;;;;;;1.41;100.00;99617.13;5072945;28;20195;-75
2021/12/05 15:41:52;;;;;;;0.73;0.40;;;;;;;1.38;100.00;99616.88;5073034;28;20525;-77
2021/12/05 15:44:24;;;;;;;0.50;0.50;;;;;;;1.42;100.00;99617.94;5072937;28;20177;-77
2021/12/05 15:46:49;;;;;;;0.40;0.40;;;;;;;1.39;100.00;99621.16;5071539;28;20214;-77
2021/12/05 15:49:15;;;;;;;0.80;0.60;;;;;;;1.35;100.00;99622.78;5072927;28;20512;-77
2021/12/05 15:51:40;;;;;;;1.50;0.70;;;;;;;1.29;100.00;99631.94;5071505;28;20171;-77
2021/12/05 15:54:06;;;;;;;0.80;0.80;;;;;;;1.27;100.00;99631.41;5072709;28;20178;-78
2021/12/05 15:56:31;;;;;;;1.33;0.63;;;;;;;1.26;100.00;99635.16;5072494;28;20178;-77
2021/12/05 15:59:08;;;;;;;0.70;0.70;;;;;;;1.31;100.00;99645.94;5073136;28;20582;-77
2021/12/05 16:01:35;;;;;;;1.13;0.60;;;;;;;1.41;100.00;99652.09;5072826;28;20179;-77
2021/12/05 16:04:04;;;;;;;1.73;0.67;;;;;;;1.47;100.00;99647.53;5072569;28;20417;-77
2021/12/05 16:06:33;;;;;;;0.60;0.60;;;;;;;1.51;100.00;99663.94;5072404;28;20630;-78
2021/12/05 16:09:13;;;;;;;0.63;0.63;;;;;;;1.50;100.00;99660.44;5072335;28;20240;-78
2021/12/05 16:11:39;;;;;;;1.70;0.50;;;;;;;1.46;100.00;99665.56;5071240;28;20175;-78
2021/12/05 16:14:04;;;;;;;0.90;0.40;;;;;;;1.46;100.00;99662.09;5072331;28;20228;-77
2021/12/05 16:16:30;;;;;;;2.03;0.90;;;;;;;1.38;100.00;99666.09;5072316;28;20640;-78
2021/12/05 16:18:59;;;;;;;1.10;1.10;;;;;;;1.32;100.00;99661.81;5072261;28;20650;-78
2021/12/05 16:21:27;;;;;;;0.70;0.60;;;;;;;1.22;100.00;99661.00;5072348;28;20224;-78
2021/12/05 16:23:56;;;;;;;6.10;1.27;;;;;;;1.16;100.00;99676.34;5072041;28;20182;-78
2021/12/05 16:26:24;;;;;;;1.30;1.20;;;;;;;1.15;100.00;99674.69;5071885;28;20185;-78
2021/12/05 16:28:55;;;;;;;2.87;0.77;;;;;;;1.23;100.00;99678.75;5072115;28;20412;-78
2021/12/05 16:31:22;;;;;;;4.43;1.40;;;;;;;1.30;100.00;99687.34;5072176;28;20567;-78
2021/12/05 16:33:50;;;;;;;1.50;1.10;;;;;;;1.33;100.00;99684.97;5072436;28;20526;-77
2021/12/05 16:36:18;;;;;;;5.80;1.70;;;;;;;1.31;100.00;99678.22;5071651;28;20638;-77
2021/12/05 16:38:48;;;;;;;3.43;1.77;;;;;;;1.31;100.00;99691.69;5072204;28;20417;-78
2021/12/05 16:41:16;;;;;;;1.53;1.20;;;;;;;1.38;100.00;99700.28;5071743;28;20471;-78
2021/12/05 16:43:53;;;;;;;0.80;0.80;;;;;;;1.45;100.00;99696.25;5071809;28;20425;-78
2021/12/05 16:46:22;;;;;;;0.60;0.60;;;;;;;1.51;100.00;99696.25;5071605;28;20178;-77
2021/12/05 16:48:48;;;;;;;2.50;0.47;;;;;;;1.53;100.00;99696.78;5071666;28;20174;-77
2021/12/05 16:51:21;;;;;;;0.67;0.67;;;;;;;1.46;100.00;99705.16;5071725;28;20626;-77
2021/12/05 16:53:50;;;;;;;1.20;1.07;;;;;;;1.34;100.00;99701.91;5071614;28;20326;-77
2021/12/05 16:56:46;;;;;;;1.23;1.00;;;;;;;1.23;100.00;99706.47;5069847;28;20182;-78
2021/12/05 16:59:14;;;;;;;0.53;0.53;;;;;;;1.16;100.00;99709.44;5070092;28;20182;-77
2021/12/05 17:01:40;;;;;;;1.33;1.20;;;;;;;1.21;100.00;99707.81;5071449;28;20257;-77
2021/12/05 17:04:05;;;;;;;1.33;1.23;;;;;;;1.31;100.00;99723.97;5071302;28;20498;-78
2021/12/05 17:06:53;;;;;;;2.20;0.97;;;;;;;1.38;100.00;99724.50;5069778;28;20240;-75